Terminal Aerodrome Forecast
Issued by NWS Flagstaff, AZ

Home | Current Version | Previous Version | Text Only | Print | Product List | Glossary On
Versions: 1 2 3 4 5 6 7 8 9 10 11 12 13 14 15 16 17 18 19 20 21
000
FTUS45 KFGZ 230541
TAFFLG
TAF
KFLG 230541Z 2306/2406 VRB04KT P6SM BKN040
      TEMPO 2309/2313 BKN025 BKN100
     FM231900 22012G18KT P6SM VCSH BKN040 BKN080
      TEMPO 2320/2324 5SM -SHRA BKN030
     FM240300 VRB05KT P6SM BKN030 BKN080=

USA.gov is the U.S. government's official web portal to all federal, state and local government web resources and services.